Time;durP1;ratioP1;P1;durP2;ratioP2;P2;SDS_P1;SDS_P2;PMS_P1;PMS_P2;Temp;Humidity;BMP_temperature;BMP_pressure;BME280_temperature;BME280_humidity;BME280_pressure;Samples;Min_cycle;Max_cycle;Signal;HPM_P1;HPM_P2
2022/07/14 00:01:48;;;;;;;1.30;1.30;;;;;;;30.92;30.56;99554.09;1866744;75;28878;-44
2022/07/14 00:04:36;;;;;;;1.40;1.40;;;;;;;30.92;30.27;99546.31;1876610;75;28243;-43
2022/07/14 00:07:24;;;;;;;1.37;1.27;;;;;;;30.88;30.19;99547.44;1879303;75;28236;-44
2022/07/14 00:10:14;;;;;;;1.40;1.40;;;;;;;30.85;30.04;99545.77;1888371;75;28159;-45
2022/07/14 00:13:03;;;;;;;1.32;1.32;;;;;;;30.80;30.23;99548.03;1890077;74;28094;-43
2022/07/14 00:15:52;;;;;;;1.50;1.40;;;;;;;30.81;30.37;99546.89;1883230;75;28081;-43
2022/07/14 00:18:46;;;;;;;1.10;1.10;;;;;;;30.78;30.52;99541.95;1879186;75;28133;-42
2022/07/14 00:21:30;;;;;;;1.32;1.27;;;;;;;30.83;30.55;99551.59;1879354;75;28200;-41
2022/07/14 00:24:18;;;;;;;1.37;1.37;;;;;;;30.85;30.50;99543.84;1855927;76;28375;-43
2022/07/14 00:27:07;;;;;;;1.35;1.20;;;;;;;30.76;30.45;99547.76;1881164;75;28294;-47
2022/07/14 00:29:56;;;;;;;1.35;1.30;;;;;;;30.79;30.55;99549.13;1898387;75;28258;-41
2022/07/14 00:32:44;;;;;;;2.37;1.30;;;;;;;30.81;30.60;99549.66;1878079;75;28135;-44
2022/07/14 00:35:34;;;;;;;1.50;1.45;;;;;;;30.82;30.61;99547.18;1884537;75;28162;-42
2022/07/14 00:38:22;;;;;;;1.30;1.30;;;;;;;30.85;30.66;99541.06;1887247;75;28081;-46
2022/07/14 00:41:12;;;;;;;1.60;1.50;;;;;;;30.87;30.70;99547.70;1877496;75;28211;-45
2022/07/14 00:44:01;;;;;;;1.77;1.67;;;;;;;30.88;30.76;99547.98;1895540;75;28105;-43
2022/07/14 00:46:50;;;;;;;1.87;1.77;;;;;;;30.87;30.72;99550.47;1901619;74;28377;-46
2022/07/14 00:49:38;;;;;;;1.70;1.60;;;;;;;30.87;30.78;99549.92;1877804;75;28196;-44
2022/07/14 00:52:30;;;;;;;1.67;1.57;;;;;;;30.88;30.77;99550.20;1883191;75;32993;-42
2022/07/14 00:55:18;;;;;;;2.08;1.80;;;;;;;30.91;30.79;99555.19;1885520;75;28726;-44
2022/07/14 00:58:07;;;;;;;1.70;1.60;;;;;;;30.90;30.85;99555.48;1878875;75;28057;-43
2022/07/14 01:00:56;;;;;;;2.00;1.90;;;;;;;30.90;30.88;99551.33;1887001;75;28231;-42
2022/07/14 01:03:44;;;;;;;2.00;1.90;;;;;;;30.89;30.94;99549.66;1894979;75;28284;-43
2022/07/14 01:06:33;;;;;;;1.90;1.80;;;;;;;30.91;30.93;99543.25;1873283;74;28183;-43
2022/07/14 01:09:21;;;;;;;2.00;1.90;;;;;;;30.92;30.97;99543.54;1884261;75;28105;-44
2022/07/14 01:12:13;;;;;;;1.98;1.87;;;;;;;30.93;30.98;99541.02;1888816;75;28213;-47
2022/07/14 01:15:01;;;;;;;2.08;1.98;;;;;;;30.90;30.99;99545.77;1897872;75;28133;-41
2022/07/14 01:17:50;;;;;;;2.27;2.07;;;;;;;30.90;30.98;99544.39;1883681;75;28187;-43
2022/07/14 01:20:39;;;;;;;2.25;2.15;;;;;;;30.90;31.02;99538.84;1878205;74;28265;-44
2022/07/14 01:23:29;;;;;;;2.10;2.00;;;;;;;30.90;31.03;99542.42;1879501;75;28259;-41
2022/07/14 01:26:19;;;;;;;2.35;2.25;;;;;;;30.89;31.06;99538.01;1882693;75;28262;-43
2022/07/14 01:29:07;;;;;;;2.33;2.13;;;;;;;30.91;31.05;99535.77;1846570;76;28303;-43
2022/07/14 01:31:57;;;;;;;2.20;2.10;;;;;;;30.90;31.11;99531.91;1881684;75;30079;-42
2022/07/14 01:34:46;;;;;;;2.15;2.05;;;;;;;30.92;31.12;99534.66;1878994;74;28056;-45
2022/07/14 01:37:35;;;;;;;2.92;2.20;;;;;;;30.90;31.14;99539.64;1900971;75;28077;-42
2022/07/14 01:40:23;;;;;;;2.22;2.12;;;;;;;30.90;31.18;99528.55;1889367;74;28687;-46
2022/07/14 01:43:12;;;;;;;2.50;2.30;;;;;;;30.90;31.21;99527.16;1901512;73;28155;-42
2022/07/14 01:46:00;;;;;;;2.47;2.33;;;;;;;30.90;31.26;99522.20;1896689;74;28239;-43
2022/07/14 01:48:50;;;;;;;4.50;2.50;;;;;;;30.82;31.33;99507.51;1907799;73;28086;-42
2022/07/14 01:51:39;;;;;;;2.35;2.20;;;;;;;30.87;31.36;99522.19;1907284;74;28110;-43
2022/07/14 01:54:27;;;;;;;2.45;2.25;;;;;;;30.87;31.40;99520.80;1912053;73;28156;-45
2022/07/14 01:57:16;;;;;;;2.22;2.12;;;;;;;30.88;31.42;99521.08;1899330;74;28064;-45
2022/07/14 02:00:06;;;;;;;2.35;2.25;;;;;;;30.86;31.48;99519.13;1906193;73;28092;-45
2022/07/14 02:02:56;;;;;;;2.27;2.17;;;;;;;30.85;31.51;99524.42;1889444;74;28117;-47
2022/07/14 02:05:46;;;;;;;2.10;2.00;;;;;;;30.86;31.53;99526.06;1895906;74;28077;-44
2022/07/14 02:08:35;;;;;;;2.30;2.20;;;;;;;30.86;31.50;99528.00;1915682;73;28140;-44
2022/07/14 02:14:32;;;;;;;2.30;2.20;;;;;;;30.78;31.57;99530.85;1896274;74;28117;-44
2022/07/14 02:17:20;;;;;;;2.45;2.20;;;;;;;30.78;31.57;99530.85;1908476;73;28624;-46
2022/07/14 02:20:10;;;;;;;3.12;2.10;;;;;;;30.76;31.52;99521.96;1904591;73;28203;-45
2022/07/14 02:22:58;;;;;;;2.20;2.10;;;;;;;30.78;31.43;99527.49;1901121;73;28136;-44
2022/07/14 02:25:47;;;;;;;1.90;1.80;;;;;;;30.80;31.29;99528.61;1900994;75;28173;-47
2022/07/14 02:28:37;;;;;;;1.82;1.72;;;;;;;30.77;31.23;99529.17;1901153;75;28027;-45
2022/07/14 02:31:25;;;;;;;1.90;1.80;;;;;;;30.77;31.20;99525.02;1888802;74;28262;-43
2022/07/14 02:34:14;;;;;;;1.92;1.82;;;;;;;30.78;31.21;99524.72;1900178;74;28162;-47
2022/07/14 02:37:02;;;;;;;2.00;1.90;;;;;;;30.81;31.19;99521.93;1909024;73;28199;-43
2022/07/14 02:39:51;;;;;;;1.90;1.80;;;;;;;30.77;31.31;99525.02;1832576;76;28349;-42
2022/07/14 02:42:40;;;;;;;2.85;1.87;;;;;;;30.78;31.29;99525.30;1877052;75;28195;-45
2022/07/14 02:45:28;;;;;;;2.00;1.90;;;;;;;30.77;31.26;99526.41;1893921;75;28153;-42
2022/07/14 02:48:17;;;;;;;2.03;1.93;;;;;;;30.77;31.24;99526.41;1877359;75;28153;-44
2022/07/14 02:51:09;;;;;;;1.80;1.70;;;;;;;30.77;31.22;99531.95;1899644;75;28236;-44
2022/07/14 02:53:57;;;;;;;1.90;1.80;;;;;;;30.75;31.25;99532.80;1880886;75;28157;-45
2022/07/14 02:56:45;;;;;;;1.70;1.70;;;;;;;30.76;31.23;99526.95;1891319;75;28229;-43
2022/07/14 02:59:34;;;;;;;2.08;1.77;;;;;;;30.74;31.29;99528.36;1887846;75;28582;-46
2022/07/14 03:02:23;;;;;;;1.70;1.65;;;;;;;30.74;31.33;99531.97;1878210;75;28113;-43
2022/07/14 03:05:12;;;;;;;1.98;1.87;;;;;;;30.73;31.42;99537.27;1894509;75;28188;-47
2022/07/14 03:08:01;;;;;;;1.70;1.60;;;;;;;30.74;31.44;99529.75;1880794;75;28278;-42
2022/07/14 03:10:51;;;;;;;1.80;1.70;;;;;;;30.73;31.47;99533.10;1903896;75;28158;-45
2022/07/14 03:13:40;;;;;;;1.62;1.62;;;;;;;30.73;31.48;99532.27;1864087;76;28334;-46
2022/07/14 03:16:29;;;;;;;2.08;1.80;;;;;;;30.75;31.44;99543.90;1854766;76;28374;-43
2022/07/14 03:19:20;;;;;;;1.90;1.80;;;;;;;30.78;31.35;99534.17;1890904;75;28121;-44
2022/07/14 03:22:08;;;;;;;2.00;1.90;;;;;;;30.78;31.40;99539.17;1859775;74;28144;-45
2022/07/14 03:24:57;;;;;;;2.00;1.90;;;;;;;30.78;31.40;99541.11;1913325;74;28125;-43
2022/07/14 03:27:46;;;;;;;1.90;1.80;;;;;;;30.75;31.44;99538.34;1877395;75;28212;-45
2022/07/14 03:30:35;;;;;;;2.25;1.85;;;;;;;30.78;31.45;99541.95;1891417;75;28162;-44
2022/07/14 03:33:25;;;;;;;1.80;1.70;;;;;;;30.78;31.49;99546.66;1883007;75;28736;-47
2022/07/14 03:36:13;;;;;;;1.90;1.80;;;;;;;30.76;31.56;99542.77;1884356;75;28226;-45
2022/07/14 03:39:04;;;;;;;2.00;1.87;;;;;;;30.75;31.58;99543.34;1881860;75;28264;-45
2022/07/14 03:41:54;;;;;;;1.90;1.80;;;;;;;30.74;31.65;99544.45;1884643;75;28191;-47
2022/07/14 03:44:45;;;;;;;2.10;2.00;;;;;;;30.73;31.75;99549.74;1901609;75;28254;-44
2022/07/14 03:47:34;;;;;;;1.90;1.80;;;;;;;30.73;31.77;99547.52;1895802;75;28217;-41
2022/07/14 03:50:24;;;;;;;2.22;2.12;;;;;;;30.71;31.83;99542.23;1870965;75;28252;-42
2022/07/14 03:53:12;;;;;;;2.10;2.00;;;;;;;30.69;31.89;99547.83;1872896;75;28177;-47
2022/07/14 03:56:01;;;;;;;2.05;1.95;;;;;;;30.72;31.87;99538.37;1876505;75;28234;-47
2022/07/14 03:58:51;;;;;;;2.10;2.00;;;;;;;30.69;31.93;99541.70;1864155;75;28196;-44
2022/07/14 04:01:41;;;;;;;2.20;2.10;;;;;;;30.66;32.00;99541.46;1827355;78;28268;-47
2022/07/14 04:04:30;;;;;;;2.83;2.00;;;;;;;30.68;32.02;99541.45;1862584;75;28270;-43
2022/07/14 04:07:19;;;;;;;2.00;1.90;;;;;;;30.70;32.02;99535.61;1869033;75;28211;-45
2022/07/14 04:10:09;;;;;;;2.10;2.00;;;;;;;30.70;31.98;99542.54;1828716;78;28268;-42
2022/07/14 04:12:58;;;;;;;2.02;1.92;;;;;;;30.68;32.02;99541.45;1885914;75;28276;-46
2022/07/14 04:15:46;;;;;;;2.20;2.00;;;;;;;30.70;31.98;99543.92;1878701;75;28410;-44
2022/07/14 04:18:35;;;;;;;2.02;1.92;;;;;;;30.67;32.05;99535.63;1901249;75;28113;-43
2022/07/14 04:21:24;;;;;;;1.90;1.80;;;;;;;30.73;32.02;99541.42;1866694;75;28333;-45
2022/07/14 04:24:14;;;;;;;2.22;2.10;;;;;;;30.74;32.00;99546.38;1868189;74;28211;-46
2022/07/14 04:27:04;;;;;;;2.00;1.90;;;;;;;30.71;32.03;99541.44;1879240;75;28220;-42
2022/07/14 04:29:53;;;;;;;2.00;1.90;;;;;;;30.74;32.01;99545.00;1880268;75;28164;-44
2022/07/14 04:32:42;;;;;;;2.00;1.90;;;;;;;30.72;32.04;99543.08;1880021;75;28221;-43
2022/07/14 04:35:32;;;;;;;2.20;2.10;;;;;;;30.73;32.05;99542.81;1896795;75;28239;-43
2022/07/14 04:38:20;;;;;;;1.97;1.80;;;;;;;30.65;32.17;99539.80;1876801;73;28286;-42
2022/07/14 04:41:10;;;;;;;2.08;1.98;;;;;;;30.69;32.13;99545.06;1876708;75;28238;-43
2022/07/14 04:44:00;;;;;;;2.10;1.92;;;;;;;30.70;32.14;99546.14;1894429;74;28064;-44
2022/07/14 04:46:48;;;;;;;2.70;1.90;;;;;;;30.66;32.17;99547.84;1895645;73;28321;-43
2022/07/14 04:52:49;;;;;;;2.10;2.00;;;;;;;30.67;32.18;99545.88;1887279;74;32116;-46
2022/07/14 04:55:56;;;;;;;1.82;1.80;;;;;;;30.67;32.18;99554.20;1892857;73;28644;-45
2022/07/14 04:58:46;;;;;;;2.25;1.92;;;;;;;30.58;32.26;99550.38;1881883;73;28189;-44
2022/07/14 05:01:35;;;;;;;2.20;2.10;;;;;;;30.62;32.25;99550.89;1914625;73;28109;-42
2022/07/14 05:04:23;;;;;;;2.30;2.10;;;;;;;30.64;32.19;99556.98;1877411;75;27811;-43
2022/07/14 05:07:13;;;;;;;1.77;1.67;;;;;;;30.63;32.27;99555.34;1893646;74;28101;-45
2022/07/14 05:10:05;;;;;;;1.72;1.62;;;;;;;30.61;32.36;99550.64;1919861;73;28178;-43
2022/07/14 05:12:53;;;;;;;2.10;2.00;;;;;;;30.64;32.29;99555.59;1893693;74;28156;-43
2022/07/14 05:15:42;;;;;;;2.12;2.02;;;;;;;30.66;32.27;99555.33;1892869;74;31147;-42
2022/07/14 05:18:31;;;;;;;2.10;2.00;;;;;;;30.61;32.30;99555.36;1884920;75;28285;-41
2022/07/14 05:21:20;;;;;;;2.17;2.00;;;;;;;30.66;32.27;99558.94;1893099;74;28049;-46
2022/07/14 05:24:08;;;;;;;1.80;1.70;;;;;;;30.65;32.28;99559.20;1895908;75;28230;-44
2022/07/14 05:26:58;;;;;;;2.12;1.80;;;;;;;30.67;32.25;99562.52;1912845;74;28078;-44
2022/07/14 05:29:47;;;;;;;2.10;1.90;;;;;;;30.60;32.34;99557.29;1904041;74;28118;-42
2022/07/14 05:32:37;;;;;;;1.92;1.82;;;;;;;30.67;32.27;99555.58;1885609;73;28109;-43
2022/07/14 05:35:27;;;;;;;1.90;1.80;;;;;;;30.69;32.21;99557.54;1881301;74;28773;-44
2022/07/14 05:38:17;;;;;;;2.00;1.90;;;;;;;30.65;32.20;99556.43;1888156;74;27749;-43
2022/07/14 05:41:06;;;;;;;1.95;1.85;;;;;;;30.68;32.21;99567.80;1914827;73;28055;-43
2022/07/14 05:43:55;;;;;;;2.55;2.17;;;;;;;30.70;32.16;99568.88;1911043;73;28043;-43
2022/07/14 05:46:43;;;;;;;1.90;1.80;;;;;;;30.63;32.24;99565.59;1906584;74;28095;-45
2022/07/14 05:49:34;;;;;;;1.63;1.63;;;;;;;30.65;32.24;99565.59;1914527;73;28084;-43
2022/07/14 05:52:23;;;;;;;2.00;1.90;;;;;;;30.68;32.25;99564.19;1913930;73;28184;-43
2022/07/14 05:55:12;;;;;;;1.67;1.65;;;;;;;30.69;32.24;99570.02;1906005;73;28105;-43
2022/07/14 05:58:00;;;;;;;1.90;1.80;;;;;;;30.64;32.25;99568.08;1908875;73;28027;-42
2022/07/14 06:00:49;;;;;;;1.93;1.83;;;;;;;30.67;32.26;99570.28;1905304;73;28163;-42
2022/07/14 06:03:37;;;;;;;2.00;1.90;;;;;;;30.72;32.21;99566.65;1904907;74;28157;-44
2022/07/14 06:06:26;;;;;;;2.17;1.98;;;;;;;30.68;32.24;99569.19;1905140;74;28215;-45
2022/07/14 06:09:15;;;;;;;1.92;1.82;;;;;;;30.68;32.29;99566.96;1906672;74;28433;-45
2022/07/14 06:12:06;;;;;;;1.90;1.80;;;;;;;30.69;32.32;99568.05;1905590;73;28182;-44
2022/07/14 06:14:56;;;;;;;1.82;1.72;;;;;;;30.64;32.39;99569.46;1920013;73;28123;-42
2022/07/14 06:17:45;;;;;;;2.00;1.90;;;;;;;30.61;32.45;99566.45;1904674;73;28149;-43
2022/07/14 06:20:33;;;;;;;1.95;1.85;;;;;;;30.62;32.51;99555.64;1915948;73;28551;-44
2022/07/14 06:23:23;;;;;;;1.98;1.90;;;;;;;30.56;32.61;99560.38;1906583;74;28243;-44
2022/07/14 06:26:13;;;;;;;2.15;2.05;;;;;;;30.56;32.65;99563.70;1908981;74;28030;-43
2022/07/14 06:29:03;;;;;;;1.97;1.87;;;;;;;30.54;32.72;99561.77;1905816;74;28658;-45
2022/07/14 06:31:55;;;;;;;1.87;1.70;;;;;;;30.61;32.68;99560.34;1924443;73;28015;-43
2022/07/14 06:34:42;;;;;;;1.95;1.85;;;;;;;30.62;32.63;99557.03;1909090;73;28188;-42
2022/07/14 06:37:38;;;;;;;2.00;1.90;;;;;;;30.62;32.65;99557.03;1917982;73;28074;-44
2022/07/14 06:40:28;;;;;;;1.93;1.80;;;;;;;30.60;32.70;99556.45;1904267;73;28250;-43
2022/07/14 06:43:17;;;;;;;1.98;1.87;;;;;;;30.64;32.70;99556.98;1901790;73;28150;-43
2022/07/14 06:46:18;;;;;;;2.10;1.90;;;;;;;30.62;32.72;99559.80;1929829;74;28031;-44
2022/07/14 06:49:06;;;;;;;2.10;2.00;;;;;;;30.61;32.76;99555.36;1903002;73;28153;-43
2022/07/14 06:51:54;;;;;;;2.08;1.92;;;;;;;30.57;32.83;99551.50;1915824;73;28189;-42
2022/07/14 06:54:42;;;;;;;1.90;1.80;;;;;;;30.57;32.83;99554.28;1901918;75;28179;-43
2022/07/14 06:57:31;;;;;;;2.00;1.90;;;;;;;30.55;32.91;99557.31;1870574;75;28224;-42
2022/07/14 07:00:19;;;;;;;2.10;2.00;;;;;;;30.58;32.89;99553.14;1919580;73;28112;-43
2022/07/14 07:03:13;;;;;;;1.87;1.77;;;;;;;30.58;32.90;99551.76;1902789;73;28216;-42
2022/07/14 07:09:07;;;;;;;2.00;1.90;;;;;;;30.55;33.01;99553.16;1914603;73;28108;-44
2022/07/14 07:11:55;;;;;;;2.20;2.10;;;;;;;30.58;32.97;99555.92;1917552;73;28074;-45
2022/07/14 07:14:45;;;;;;;2.10;1.85;;;;;;;30.62;33.03;99556.44;1910964;73;28175;-46
2022/07/14 07:17:33;;;;;;;2.10;2.00;;;;;;;30.64;33.08;99550.63;1903303;73;28207;-44
2022/07/14 07:20:21;;;;;;;2.05;1.95;;;;;;;30.65;33.09;99546.72;1902371;73;28521;-47
2022/07/14 07:23:10;;;;;;;2.10;2.00;;;;;;;30.64;33.05;99540.92;1913141;73;28141;-44
2022/07/14 07:25:59;;;;;;;2.20;2.10;;;;;;;30.64;32.99;99542.31;1906169;73;28151;-49
2022/07/14 07:28:48;;;;;;;2.20;2.10;;;;;;;30.63;32.93;99542.86;1901925;75;28137;-47
2022/07/14 07:31:37;;;;;;;2.10;2.00;;;;;;;30.61;32.89;99540.10;1903236;75;28152;-50
2022/07/14 07:34:25;;;;;;;2.52;2.10;;;;;;;30.64;32.82;99537.57;1907391;73;28216;-45
2022/07/14 07:37:13;;;;;;;2.42;2.15;;;;;;;30.60;32.83;99528.17;1905121;73;28273;-47
2022/07/14 07:40:03;;;;;;;2.40;2.20;;;;;;;30.59;32.97;99530.70;1902253;75;28168;-45
2022/07/14 07:42:51;;;;;;;2.10;2.00;;;;;;;30.62;32.90;99527.33;1907224;73;28117;-44
2022/07/14 07:45:40;;;;;;;2.50;2.30;;;;;;;30.65;32.96;99521.77;1894358;74;28141;-44
2022/07/14 07:48:28;;;;;;;2.17;2.08;;;;;;;30.70;32.86;99520.35;1892875;75;28147;-55
2022/07/14 07:51:16;;;;;;;2.40;2.30;;;;;;;30.70;32.85;99513.42;1900738;74;28287;-66
2022/07/14 07:54:05;;;;;;;2.08;1.98;;;;;;;30.69;33.03;99515.94;1903301;74;28250;-55
2022/07/14 07:56:54;;;;;;;2.55;2.20;;;;;;;30.71;33.09;99507.57;1905806;73;28086;-57
2022/07/14 07:59:42;;;;;;;2.35;2.17;;;;;;;30.70;32.98;99505.09;1899101;74;28140;-56
2022/07/14 08:02:30;;;;;;;2.35;2.15;;;;;;;30.71;32.93;99507.57;1892357;75;28140;-57
2022/07/14 08:05:19;;;;;;;2.30;2.20;;;;;;;30.65;32.96;99506.52;1904608;74;28168;-55
2022/07/14 08:08:08;;;;;;;2.23;2.13;;;;;;;30.67;32.94;99509.27;1901649;74;28043;-58
2022/07/14 08:10:57;;;;;;;2.50;2.30;;;;;;;30.70;32.90;99502.33;1902011;74;28132;-58
2022/07/14 08:13:45;;;;;;;2.20;2.10;;;;;;;30.61;32.85;99498.51;1893633;74;28144;-55
2022/07/14 08:16:34;;;;;;;2.45;2.30;;;;;;;30.59;32.68;99489.66;1901466;74;28292;-53
2022/07/14 08:19:22;;;;;;;2.60;2.50;;;;;;;30.64;32.54;99486.27;1895533;75;28195;-58
2022/07/14 08:22:11;;;;;;;2.50;2.40;;;;;;;30.74;32.33;99488.14;1901445;74;28101;-55
2022/07/14 08:25:00;;;;;;;2.70;2.50;;;;;;;30.78;32.25;99484.25;1898525;74;28031;-54
2022/07/14 08:27:49;;;;;;;2.50;2.30;;;;;;;30.81;32.30;99481.71;1898366;74;28161;-54
2022/07/14 08:30:37;;;;;;;2.93;2.73;;;;;;;30.81;32.34;99484.48;1892490;74;28125;-54
2022/07/14 08:33:25;;;;;;;2.45;2.35;;;;;;;30.83;32.10;99480.86;1901740;74;28068;-51
2022/07/14 08:36:14;;;;;;;3.17;2.50;;;;;;;30.86;32.06;99469.19;1899228;74;28183;-52
2022/07/14 08:39:05;;;;;;;2.37;2.27;;;;;;;30.81;31.67;99473.39;1897919;74;28242;-50
2022/07/14 08:41:57;;;;;;;2.40;2.30;;;;;;;30.83;31.49;99468.96;1899489;73;28027;-56
2022/07/14 08:44:47;;;;;;;2.27;2.17;;;;;;;30.79;31.46;99471.47;1901415;73;28159;-54
2022/07/14 08:47:38;;;;;;;2.27;2.17;;;;;;;30.86;31.39;99471.12;1879309;74;39061;-53
2022/07/14 08:50:26;;;;;;;2.77;2.58;;;;;;;30.92;31.31;99470.86;1898515;73;28118;-56
2022/07/14 08:53:17;;;;;;;3.25;2.20;;;;;;;30.94;31.43;99463.06;1886358;75;28180;-57
2022/07/14 08:56:05;;;;;;;2.40;2.20;;;;;;;30.91;31.51;99459.48;1878918;75;28262;-56
2022/07/14 08:58:54;;;;;;;2.45;2.25;;;;;;;30.93;31.48;99462.78;1899808;74;27979;-52
2022/07/14 09:01:49;;;;;;;2.10;2.00;;;;;;;30.93;31.42;99457.79;1888644;75;28250;-48
2022/07/14 09:04:34;;;;;;;2.20;2.10;;;;;;;30.95;31.41;99456.38;1900491;74;28156;-50
2022/07/14 09:07:38;;;;;;;2.10;2.00;;;;;;;31.02;31.29;99448.55;1871753;75;28113;-56
2022/07/14 09:10:28;;;;;;;2.67;2.10;;;;;;;30.98;31.23;99448.88;1871064;75;28191;-50
2022/07/14 09:13:20;;;;;;;2.10;2.00;;;;;;;31.01;31.18;99446.91;1889335;75;28109;-52
2022/07/14 09:16:17;;;;;;;2.00;1.90;;;;;;;31.09;31.11;99446.81;1885756;75;28222;-54
2022/07/14 09:19:12;;;;;;;2.10;2.00;;;;;;;31.12;31.11;99437.36;1884337;75;28186;-52
2022/07/14 09:22:01;;;;;;;2.20;2.00;;;;;;;31.16;30.96;99435.65;1877063;75;28230;-48
2022/07/14 09:24:53;;;;;;;2.05;1.95;;;;;;;31.10;30.73;99434.05;1889409;75;28280;-48
2022/07/14 09:27:45;;;;;;;2.70;1.82;;;;;;;31.17;30.72;99433.71;1882654;73;28035;-50
2022/07/14 09:30:34;;;;;;;2.33;2.12;;;;;;;31.22;30.73;99426.17;1882845;74;28200;-50
2022/07/14 09:33:22;;;;;;;2.00;1.90;;;;;;;31.18;30.60;99427.85;1874876;75;28281;-51
2022/07/14 09:36:20;;;;;;;1.90;1.80;;;;;;;31.26;30.55;99415.29;1888038;73;28877;-48
2022/07/14 09:39:12;;;;;;;1.80;1.70;;;;;;;31.22;30.33;99409.52;1910717;73;28105;-50
2022/07/14 09:42:00;;;;;;;1.72;1.62;;;;;;;31.29;30.28;99413.33;1873772;75;28362;-47
2022/07/14 09:44:50;;;;;;;2.00;1.90;;;;;;;31.32;30.23;99410.77;1916231;73;28277;-49
2022/07/14 09:47:59;;;;;;;1.95;1.85;;;;;;;31.36;30.21;99408.25;1917082;73;28267;-49
2022/07/14 09:51:00;;;;;;;1.87;1.77;;;;;;;31.35;30.17;99408.80;1862008;75;28352;-51
2022/07/14 09:53:49;;;;;;;2.10;2.00;;;;;;;31.36;30.15;99399.92;1865941;75;28232;-53
2022/07/14 09:56:39;;;;;;;1.95;1.85;;;;;;;31.39;30.09;99400.14;1844745;76;28376;-51
2022/07/14 09:59:29;;;;;;;2.10;2.00;;;;;;;31.40;30.08;99393.48;1847607;76;28351;-52
2022/07/14 10:02:26;;;;;;;2.05;1.95;;;;;;;31.46;30.27;99400.41;1838855;76;28319;-53
2022/07/14 10:05:15;;;;;;;1.77;1.70;;;;;;;31.51;30.21;99396.18;1902555;74;28548;-51
2022/07/14 10:08:05;;;;;;;2.00;1.90;;;;;;;31.58;29.73;99393.88;1913054;73;28158;-51
2022/07/14 10:10:56;;;;;;;1.70;1.70;;;;;;;31.62;29.62;99387.98;1921729;73;28268;-50
2022/07/14 10:13:44;;;;;;;1.95;1.70;;;;;;;31.70;29.45;99381.75;1846174;77;28199;-53
2022/07/14 10:16:34;;;;;;;1.60;1.60;;;;;;;31.69;29.54;99381.50;1837321;77;28191;-51
2022/07/14 10:19:23;;;;;;;1.90;1.80;;;;;;;31.74;29.29;99378.08;1850032;77;28193;-55
2022/07/14 10:22:13;;;;;;;2.03;1.93;;;;;;;31.79;29.07;99369.68;1833742;77;28374;-52
2022/07/14 10:25:05;;;;;;;1.67;1.67;;;;;;;31.78;29.01;99371.38;1866534;75;28143;-48
2022/07/14 10:27:53;;;;;;;1.90;1.80;;;;;;;31.84;28.71;99363.23;1847166;76;28688;-51
2022/07/14 10:31:14;;;;;;;1.50;1.50;;;;;;;31.85;28.60;99360.17;1837224;76;28174;-53
2022/07/14 10:34:20;;;;;;;2.15;1.98;;;;;;;31.82;28.68;99357.14;1847137;77;28285;-53
2022/07/14 10:37:11;;;;;;;1.87;1.77;;;;;;;31.82;28.58;99357.14;1846497;77;28264;-54
2022/07/14 10:40:14;;;;;;;1.80;1.70;;;;;;;31.72;28.59;99353.94;1862625;75;28238;-53
2022/07/14 10:43:17;;;;;;;1.50;1.50;;;;;;;31.75;28.46;99340.86;1812595;77;28276;-51
2022/07/14 10:46:08;;;;;;;1.90;1.80;;;;;;;31.75;28.42;99350.58;1906938;73;28140;-51
2022/07/14 10:48:56;;;;;;;2.10;2.00;;;;;;;31.75;28.58;99337.24;1919153;73;28106;-55
2022/07/14 10:51:50;;;;;;;2.10;1.90;;;;;;;31.83;28.65;99336.59;1905911;73;28100;-53
2022/07/14 10:54:38;;;;;;;1.92;1.82;;;;;;;31.92;28.83;99338.95;1909546;73;28070;-48
2022/07/14 10:57:26;;;;;;;1.90;1.80;;;;;;;31.91;28.58;99337.28;1905590;73;28258;-53
2022/07/14 11:00:18;;;;;;;1.60;1.50;;;;;;;31.98;27.93;99325.27;1919103;73;28030;-54
2022/07/14 11:03:35;;;;;;;1.92;1.72;;;;;;;31.96;27.76;99327.48;1918257;73;28297;-55
2022/07/14 11:06:24;;;;;;;1.70;1.50;;;;;;;32.02;27.31;99324.36;1907909;73;28189;-56
2022/07/14 11:09:32;;;;;;;1.72;1.60;;;;;;;32.09;27.36;99318.45;1922670;73;28062;-55
2022/07/14 11:12:22;;;;;;;1.97;1.87;;;;;;;32.11;27.35;99327.30;1928701;73;28076;-57
2022/07/14 11:15:29;;;;;;;1.80;1.70;;;;;;;31.99;27.71;99316.65;1904342;74;28186;-57
2022/07/14 11:18:24;;;;;;;3.17;2.52;;;;;;;31.97;27.89;99314.70;1908979;74;28047;-60
2022/07/14 11:21:20;;;;;;;2.22;2.12;;;;;;;31.97;28.11;99307.76;1914117;73;28131;-56
2022/07/14 11:24:10;;;;;;;2.80;1.90;;;;;;;31.95;28.41;99305.81;1921002;73;28103;-61
2022/07/14 11:27:03;;;;;;;1.90;1.80;;;;;;;31.99;28.73;99306.09;1919898;73;28117;-62
2022/07/14 11:29:51;;;;;;;2.12;1.92;;;;;;;32.00;28.67;99303.55;1919518;73;28747;-57
2022/07/14 11:32:39;;;;;;;2.02;1.82;;;;;;;32.01;28.76;99299.66;1909908;73;28134;-57
2022/07/14 11:38:49;;;;;;;1.73;1.73;;;;;;;32.03;28.81;99287.67;1925881;73;28093;-57
2022/07/14 11:41:49;;;;;;;1.80;1.70;;;;;;;32.02;28.97;99283.27;1915076;73;28132;-60
2022/07/14 11:44:40;;;;;;;1.40;1.40;;;;;;;32.00;28.71;99291.88;1915651;73;28377;-59
2022/07/14 11:47:30;;;;;;;1.40;1.40;;;;;;;32.07;28.16;99274.81;1917197;73;28113;-59
2022/07/14 11:50:22;;;;;;;4.83;1.70;;;;;;;32.11;27.81;99273.11;1912309;74;28078;-59
2022/07/14 11:53:10;;;;;;;1.72;1.62;;;;;;;32.16;27.84;99273.00;1906720;73;28295;-59
2022/07/14 11:56:01;;;;;;;1.30;1.30;;;;;;;32.20;27.55;99259.33;1907263;73;28171;-60
2022/07/14 11:58:50;;;;;;;1.80;1.70;;;;;;;32.25;27.40;99267.03;1903510;73;28157;-57
2022/07/14 12:01:41;;;;;;;1.52;1.50;;;;;;;32.26;27.23;99249.20;1904630;73;28109;-58
2022/07/14 12:04:29;;;;;;;1.67;1.57;;;;;;;32.29;27.11;99251.94;1905979;74;28022;-60
2022/07/14 12:07:18;;;;;;;1.70;1.60;;;;;;;32.35;27.03;99254.91;1906732;74;28067;-59
2022/07/14 12:10:07;;;;;;;1.90;1.80;;;;;;;32.41;26.73;99246.73;1908455;74;28138;-60
2022/07/14 12:12:55;;;;;;;1.95;1.85;;;;;;;32.44;26.75;99234.41;1915646;73;28183;-57
2022/07/14 12:15:44;;;;;;;1.60;1.53;;;;;;;32.46;26.78;99237.73;1907537;73;28184;-61
2022/07/14 12:18:34;;;;;;;1.70;1.60;;;;;;;32.50;26.86;99240.75;1913365;73;28288;-61
2022/07/14 12:21:35;;;;;;;1.55;1.50;;;;;;;32.61;26.87;99230.52;1915029;73;28115;-62
2022/07/14 12:24:26;;;;;;;1.70;1.60;;;;;;;32.65;26.80;99239.09;1917451;73;28109;-62
2022/07/14 12:27:14;;;;;;;1.80;1.60;;;;;;;32.63;26.72;99224.63;1907796;73;28098;-62
2022/07/14 12:30:03;;;;;;;1.45;1.40;;;;;;;32.66;26.51;99222.63;1923006;73;28655;-63
2022/07/14 12:32:54;;;;;;;1.53;1.43;;;;;;;32.68;26.37;99216.19;1914471;73;28229;-61
2022/07/14 12:35:46;;;;;;;1.30;1.30;;;;;;;32.69;26.23;99207.56;1910180;73;28101;-61
2022/07/14 12:38:37;;;;;;;1.72;1.27;;;;;;;32.77;26.02;99219.91;1915194;73;28127;-64
2022/07/14 12:41:27;;;;;;;1.35;1.35;;;;;;;32.82;25.42;99204.50;1922926;73;28132;-63
2022/07/14 12:44:16;;;;;;;1.27;1.27;;;;;;;32.86;25.32;99194.39;1909383;73;28015;-62
2022/07/14 12:47:11;;;;;;;1.10;1.10;;;;;;;32.87;25.06;99193.27;1907644;73;28173;-62
2022/07/14 12:50:01;;;;;;;1.22;1.22;;;;;;;32.90;24.86;99190.44;1914131;73;28024;-61
2022/07/14 12:52:52;;;;;;;1.42;1.40;;;;;;;32.91;24.62;99187.33;1915976;73;28003;-63
2022/07/14 12:55:44;;;;;;;1.20;1.20;;;;;;;32.87;25.07;99177.14;1912268;73;28195;-62
2022/07/14 12:58:34;;;;;;;1.40;1.30;;;;;;;32.86;25.10;99173.52;1906654;73;28279;-63
2022/07/14 13:01:24;;;;;;;1.30;1.30;;;;;;;32.84;25.42;99176.39;1912006;73;28247;-64
2022/07/14 13:04:18;;;;;;;1.30;1.30;;;;;;;32.79;25.59;99170.92;1908093;73;28133;-63
2022/07/14 13:07:27;;;;;;;1.20;1.20;;;;;;;32.76;25.92;99159.84;1916009;73;27996;-62
2022/07/14 13:10:18;;;;;;;1.10;1.10;;;;;;;32.68;26.04;99166.12;1910758;73;28098;-63
2022/07/14 13:13:07;;;;;;;2.60;1.37;;;;;;;32.65;26.20;99157.03;1918198;73;28130;-61
2022/07/14 13:16:21;;;;;;;1.20;1.20;;;;;;;32.60;26.62;99156.53;1906045;74;28162;-63
2022/07/14 13:19:24;;;;;;;1.30;1.30;;;;;;;32.54;26.61;99148.05;1924089;73;28014;-62
2022/07/14 13:22:12;;;;;;;1.20;1.20;;;;;;;32.51;26.89;99145.88;1906655;73;28155;-62
2022/07/14 13:25:01;;;;;;;1.10;1.10;;;;;;;32.47;26.98;99136.48;1907723;73;28106;-62
2022/07/14 13:27:49;;;;;;;1.25;1.20;;;;;;;32.41;27.14;99141.90;1911629;73;28063;-63
2022/07/14 13:30:38;;;;;;;1.05;1.05;;;;;;;32.39;27.34;99138.61;1913062;73;28016;-62
2022/07/14 13:33:26;;;;;;;1.60;1.15;;;;;;;32.40;27.41;99133.28;1904966;74;28191;-62
2022/07/14 13:36:16;;;;;;;1.10;1.10;;;;;;;32.38;27.50;99141.11;1908355;73;28110;-61